Terminal Aerodrome Forecast
Issued by NWS Newport/Morehead City, NC

Home | Current Version | Previous Version | Graphics & Text | Print | Product List | Glossary On
Versions: 1 2 3 4 5 6 7 8 9 10 11 12 13 14 15 16 17
074
FTUS42 KMHX 130538
TAFEWN
TAF
KEWN 130538Z 1306/1406 30007KT P6SM SCT006 BKN070
      TEMPO 1306/1307 BKN006
     FM130900 32011KT P6SM SKC
     FM131400 32013G22KT P6SM SKC
     FM132300 33007KT P6SM SKC=

USA.gov is the U.S. government's official web portal to all federal, state and local government web resources and services.